Etusivu
METAR-TAF:

METAR-TAF

Lentoasemat :

Alpnach, Sveitsi

Leveyspiiri: 46-56-19N, Pituuspiiri: 8-17-03E, korkeus merenpinnasta: 440 m

Tämänhetkinen sää

Tämä raportti tehtiin 31 minuuttia sitten, kello 17.50 UTC
Tuuli 2 kn eri suunnista
Lämpötila 22°C
Kosteus 60%
Ilmanpaine 1019 hPa
Näkyvyys 10 km tai enemmän

METAR: LSMA 151750Z AUTO VRB02KT 9999NDV NCD 22/14 Q1019 RMK

Aika: 20:21 (18:21 UTC)


TAF: puuttuu

Säähavainnot ja -ennusteet yli 4000 lentoasemalta (METAR- ja TAF-raportit).

Käytössä olevat sääasemat on merkitty karttaan keltaisilla ja punaisilla pisteillä.

Aseta hiiri pisteen päälle nähdäksesi sääaseman nimen.

Klikkaa sitten nähdäksesi säähavainnot ja -ennusteet.

Kartan vaihtaminen: klikkaa mustalla rastilla varustettuja vihreitä pisteitä, niin voit zoomata sisään; viivalla varustettua vihreää pistettä, niin voit zoomata ulos tai vihreitä nuolia, niin pääset viereisille kartoille.


METAR-TAF: